PWSweather.com
Personal Weather Stations
Station Observations
BREEJEDURP
'sGravenzande, WestlandNL

'sGravenzandeWestlandNL

Lat: 52.00095260000001, Lon: 4.174256600000035

Elevation: 3

Station Type: Davis Vantage Pro2 Plus

www.breejedurp.nl

High Low Average
Temperature 49.3°F9.6°C 38.1°F3.4°C 42.7°F5.9°C
Dew Point 46.3°F7.9°C 35.9°F2.2°C 38.5°F3.6°C
Winds 37.0 mph 59.5 kmh Calm Calm 13.0 mph WSW20.9 kmh WSW
Wind Gusts 56.0 mph90.1 kmh -- 20.0 mph32.2 kmh
Humidity 96% 72% 85%
Pressure 29.65 in1004.1 mb 29.10 in985.4 mb -
Precipitation 0.40 in10.2 mm - -
Hour Temp Dew Point Humidity Winds Wind Gusts Pressure Precip Precip Rate Daily Precip Total
12:04 AM 43.7°F6.5°C 37.3°F2.9°C 78% 9.0 mph SW14.5 kmh SW 12.0 mph19.3 kmh 29.65 in1004.1 mb 0.00 in0.0 mm 0.00 in0.0 mm 0.00 in0.0 mm
12:09 AM 43.7°F6.5°C 37.3°F2.9°C 78% 7.0 mph SW11.3 kmh SW 10.0 mph16.1 kmh 29.65 in1004.1 mb 0.00 in0.0 mm 0.00 in0.0 mm 0.00 in0.0 mm
12:14 AM 43.7°F6.5°C 37.3°F2.9°C 78% 8.0 mph SW12.9 kmh SW 19.0 mph30.6 kmh 29.65 in1004.1 mb 0.00 in0.0 mm 0.00 in0.0 mm 0.00 in0.0 mm
12:19 AM 43.7°F6.5°C 37.3°F2.9°C 78% 11.0 mph SW17.7 kmh SW 18.0 mph29.0 kmh 29.64 in1003.7 mb 0.00 in0.0 mm 0.00 in0.0 mm 0.00 in0.0 mm
12:24 AM 43.9°F6.6°C 37.5°F3.1°C 78% 9.0 mph WSW14.5 kmh WSW 13.0 mph20.9 kmh 29.64 in1003.7 mb 0.00 in0.0 mm 0.00 in0.0 mm 0.00 in0.0 mm
12:29 AM 43.5°F6.4°C 37.5°F3.1°C 79% 8.0 mph SW12.9 kmh SW 13.0 mph20.9 kmh 29.63 in1003.4 mb 0.00 in0.0 mm 0.00 in0.0 mm 0.00 in0.0 mm
12:34 AM 43.5°F6.4°C 37.5°F3.1°C 79% 6.0 mph SSW9.7 kmh SSW 12.0 mph19.3 kmh 29.63 in1003.4 mb 0.00 in0.0 mm 0.00 in0.0 mm 0.00 in0.0 mm
12:39 AM 43.5°F6.4°C 37.8°F3.2°C 80% 8.0 mph SW12.9 kmh SW 12.0 mph19.3 kmh 29.63 in1003.4 mb 0.00 in0.0 mm 0.00 in0.0 mm 0.00 in0.0 mm
12:44 AM 43.5°F6.4°C 37.8°F3.2°C 80% 9.0 mph SW14.5 kmh SW 14.0 mph22.5 kmh 29.63 in1003.4 mb 0.00 in0.0 mm 0.00 in0.0 mm 0.00 in0.0 mm
12:49 AM 43.5°F6.4°C 37.5°F3.1°C 79% 12.0 mph SSW19.3 kmh SSW 21.0 mph33.8 kmh 29.63 in1003.4 mb 0.00 in0.0 mm 0.00 in0.0 mm 0.00 in0.0 mm
12:54 AM 43.7°F6.5°C 37.3°F2.9°C 78% 14.0 mph SW22.5 kmh SW 21.0 mph33.8 kmh 29.62 in1003.0 mb 0.00 in0.0 mm 0.00 in0.0 mm 0.00 in0.0 mm
12:59 AM 43.7°F6.5°C 37.3°F2.9°C 78% 11.0 mph SW17.7 kmh SW 17.0 mph27.4 kmh 29.61 in1002.7 mb 0.00 in0.0 mm 0.00 in0.0 mm 0.00 in0.0 mm
01:04 AM 43.3°F6.3°C 37.3°F2.9°C 79% 9.0 mph WSW14.5 kmh WSW 15.0 mph24.1 kmh 29.61 in1002.7 mb 0.00 in0.0 mm 0.00 in0.0 mm 0.00 in0.0 mm
01:09 AM 43.0°F6.1°C 37.2°F2.9°C 80% 10.0 mph W16.1 kmh W 14.0 mph22.5 kmh 29.60 in1002.4 mb 0.00 in0.0 mm 0.00 in0.0 mm 0.00 in0.0 mm
01:14 AM 42.4°F5.8°C 36.7°F2.6°C 80% 11.0 mph SW17.7 kmh SW 15.0 mph24.1 kmh 29.60 in1002.4 mb 0.00 in0.0 mm 0.00 in0.0 mm 0.00 in0.0 mm
01:19 AM 41.7°F5.4°C 36.6°F2.6°C 82% 9.0 mph SW14.5 kmh SW 16.0 mph25.7 kmh 29.59 in1002.0 mb 0.00 in0.0 mm 0.00 in0.0 mm 0.00 in0.0 mm
01:24 AM 41.5°F5.3°C 36.8°F2.7°C 83% 7.0 mph SW11.3 kmh SW 10.0 mph16.1 kmh 29.59 in1002.0 mb 0.00 in0.0 mm 0.00 in0.0 mm 0.01 in0.3 mm
01:29 AM 41.5°F5.3°C 37.1°F2.8°C 84% 8.0 mph SW12.9 kmh SW 15.0 mph24.1 kmh 29.59 in1002.0 mb 0.00 in0.0 mm 0.00 in0.0 mm 0.01 in0.3 mm
01:34 AM 41.7°F5.4°C 37.3°F2.9°C 84% 8.0 mph SSW12.9 kmh SSW 13.0 mph20.9 kmh 29.58 in1001.7 mb 0.00 in0.0 mm 0.00 in0.0 mm 0.01 in0.3 mm
01:39 AM 41.9°F5.5°C 36.8°F2.7°C 82% 11.0 mph SW17.7 kmh SW 17.0 mph27.4 kmh 29.57 in1001.4 mb 0.00 in0.0 mm 0.00 in0.0 mm 0.01 in0.3 mm
01:44 AM 41.9°F5.5°C 36.8°F2.7°C 82% 12.0 mph SSW19.3 kmh SSW 16.0 mph25.7 kmh 29.56 in1001.0 mb 0.00 in0.0 mm 0.00 in0.0 mm 0.01 in0.3 mm
01:49 AM 41.7°F5.4°C 36.9°F2.7°C 83% 6.0 mph SSE9.7 kmh SSE 10.0 mph16.1 kmh 29.56 in1001.0 mb 0.00 in0.0 mm 0.00 in0.0 mm 0.01 in0.3 mm
01:54 AM 41.7°F5.4°C 37.3°F2.9°C 84% 8.0 mph S12.9 kmh S 11.0 mph17.7 kmh 29.56 in1001.0 mb 0.00 in0.0 mm 0.00 in0.0 mm 0.01 in0.3 mm
01:59 AM 41.5°F5.3°C 37.4°F3.0°C 85% 9.0 mph S14.5 kmh S 15.0 mph24.1 kmh 29.55 in1000.7 mb 0.00 in0.0 mm 0.00 in0.0 mm 0.02 in0.5 mm
02:04 AM 41.4°F5.2°C 37.5°F3.1°C 86% 5.0 mph SSW8.0 kmh SSW 8.0 mph12.9 kmh 29.54 in1000.3 mb 0.00 in0.0 mm 0.00 in0.0 mm 0.02 in0.5 mm
02:09 AM 41.4°F5.2°C 37.8°F3.2°C 87% 9.0 mph S14.5 kmh S 13.0 mph20.9 kmh 29.54 in1000.3 mb 0.00 in0.0 mm 0.00 in0.0 mm 0.02 in0.5 mm
02:14 AM 41.2°F5.1°C 37.6°F3.1°C 87% 8.0 mph SSW12.9 kmh SSW 11.0 mph17.7 kmh 29.53 in1000.0 mb 0.00 in0.0 mm 0.00 in0.0 mm 0.02 in0.5 mm
02:19 AM 41.2°F5.1°C 37.6°F3.1°C 87% 8.0 mph SW12.9 kmh SW 13.0 mph20.9 kmh 29.52 in999.7 mb 0.01 in0.3 mm 0.10 in2.5 mm 0.03 in0.8 mm
02:24 AM 40.8°F4.9°C 37.5°F3.1°C 88% 7.0 mph SSW11.3 kmh SSW 10.0 mph16.1 kmh 29.52 in999.7 mb 0.01 in0.3 mm 0.00 in0.0 mm 0.04 in1.0 mm
02:29 AM 40.6°F4.8°C 37.7°F3.2°C 89% 9.0 mph S14.5 kmh S 13.0 mph20.9 kmh 29.51 in999.3 mb 0.00 in0.0 mm 0.00 in0.0 mm 0.04 in1.0 mm
02:34 AM 40.5°F4.7°C 37.5°F3.1°C 89% 12.0 mph SSW19.3 kmh SSW 17.0 mph27.4 kmh 29.50 in999.0 mb 0.01 in0.3 mm 0.10 in2.5 mm 0.06 in1.5 mm
02:39 AM 40.3°F4.6°C 37.3°F2.9°C 89% 11.0 mph S17.7 kmh S 19.0 mph30.6 kmh 29.49 in998.6 mb 0.00 in0.0 mm 0.00 in0.0 mm 0.06 in1.5 mm
02:44 AM 40.1°F4.5°C 37.4°F3.0°C 90% 12.0 mph SSW19.3 kmh SSW 18.0 mph29.0 kmh 29.49 in998.6 mb 0.00 in0.0 mm 0.00 in0.0 mm 0.07 in1.8 mm
02:49 AM 39.9°F4.4°C 37.2°F2.9°C 90% 9.0 mph S14.5 kmh S 17.0 mph27.4 kmh 29.48 in998.3 mb 0.01 in0.3 mm 0.10 in2.5 mm 0.08 in2.0 mm
02:54 AM 39.7°F4.3°C 37.1°F2.8°C 90% 10.0 mph SSW16.1 kmh SSW 16.0 mph25.7 kmh 29.48 in998.3 mb 0.01 in0.3 mm 0.00 in0.0 mm 0.09 in2.3 mm
02:59 AM 39.4°F4.1°C 37.0°F2.8°C 91% 8.0 mph SSE12.9 kmh SSE 14.0 mph22.5 kmh 29.47 in998.0 mb 0.01 in0.3 mm 0.00 in0.0 mm 0.09 in2.3 mm
03:04 AM 39.0°F3.9°C 36.6°F2.6°C 91% 12.0 mph S19.3 kmh S 20.0 mph32.2 kmh 29.46 in997.6 mb 0.00 in0.0 mm 0.00 in0.0 mm 0.10 in2.5 mm
03:09 AM 38.8°F3.8°C 36.4°F2.4°C 91% 11.0 mph S17.7 kmh S 23.0 mph37.0 kmh 29.45 in997.3 mb 0.00 in0.0 mm 0.00 in0.0 mm 0.11 in2.8 mm
03:14 AM 38.7°F3.7°C 36.5°F2.5°C 92% 8.0 mph S12.9 kmh S 15.0 mph24.1 kmh 29.44 in997.0 mb 0.00 in0.0 mm 0.00 in0.0 mm 0.12 in3.0 mm
03:19 AM 38.7°F3.7°C 36.5°F2.5°C 92% 7.0 mph SE11.3 kmh SE 11.0 mph17.7 kmh 29.44 in997.0 mb 0.00 in0.0 mm 0.00 in0.0 mm 0.13 in3.3 mm
03:24 AM 38.5°F3.6°C 36.6°F2.6°C 93% 9.0 mph SE14.5 kmh SE 14.0 mph22.5 kmh 29.43 in996.6 mb 0.00 in0.0 mm 0.00 in0.0 mm 0.15 in3.8 mm
03:29 AM 38.3°F3.5°C 36.5°F2.5°C 93% 13.0 mph SSE20.9 kmh SSE 17.0 mph27.4 kmh 29.41 in995.9 mb 0.00 in0.0 mm 0.00 in0.0 mm 0.16 in4.1 mm
03:34 AM 38.1°F3.4°C 36.0°F2.2°C 92% 13.0 mph SE20.9 kmh SE 21.0 mph33.8 kmh 29.41 in995.9 mb 0.00 in0.0 mm 0.00 in0.0 mm 0.17 in4.3 mm
03:39 AM 38.1°F3.4°C 36.3°F2.4°C 93% 11.0 mph SE17.7 kmh SE 16.0 mph25.7 kmh 29.40 in995.6 mb 0.00 in0.0 mm 0.00 in0.0 mm 0.17 in4.3 mm
03:44 AM 38.3°F3.5°C 36.5°F2.5°C 93% 12.0 mph SSE19.3 kmh SSE 20.0 mph32.2 kmh 29.39 in995.3 mb 0.00 in0.0 mm 0.00 in0.0 mm 0.18 in4.6 mm
03:49 AM 38.7°F3.7°C 36.8°F2.7°C 93% 11.0 mph SE17.7 kmh SE 15.0 mph24.1 kmh 29.37 in994.6 mb 0.00 in0.0 mm 0.00 in0.0 mm 0.18 in4.6 mm
03:54 AM 38.8°F3.8°C 37.0°F2.8°C 93% 16.0 mph S25.7 kmh S 26.0 mph41.8 kmh 29.36 in994.2 mb 0.01 in0.3 mm 0.10 in2.5 mm 0.20 in5.1 mm
03:59 AM 39.0°F3.9°C 37.4°F3.0°C 94% 12.0 mph SE19.3 kmh SE 18.0 mph29.0 kmh 29.36 in994.2 mb 0.00 in0.0 mm 0.00 in0.0 mm 0.20 in5.1 mm
04:04 AM 39.2°F4.0°C 37.6°F3.1°C 94% 11.0 mph ESE17.7 kmh ESE 16.0 mph25.7 kmh 29.35 in993.9 mb 0.00 in0.0 mm 0.00 in0.0 mm 0.21 in5.3 mm
04:09 AM 39.4°F4.1°C 37.8°F3.2°C 94% 15.0 mph SE24.1 kmh SE 21.0 mph33.8 kmh 29.33 in993.2 mb 0.00 in0.0 mm 0.00 in0.0 mm 0.21 in5.3 mm
04:14 AM 39.6°F4.2°C 38.0°F3.3°C 94% 9.0 mph SE14.5 kmh SE 12.0 mph19.3 kmh 29.33 in993.2 mb 0.00 in0.0 mm 0.00 in0.0 mm 0.21 in5.3 mm
04:19 AM 39.6°F4.2°C 38.0°F3.3°C 94% 13.0 mph S20.9 kmh S 18.0 mph29.0 kmh 29.32 in992.9 mb 0.00 in0.0 mm 0.00 in0.0 mm 0.21 in5.3 mm
04:24 AM 39.7°F4.3°C 38.2°F3.4°C 94% 11.0 mph SE17.7 kmh SE 15.0 mph24.1 kmh 29.31 in992.6 mb 0.00 in0.0 mm 0.00 in0.0 mm 0.22 in5.6 mm
04:29 AM 39.7°F4.3°C 38.2°F3.4°C 94% 12.0 mph SSW19.3 kmh SSW 21.0 mph33.8 kmh 29.30 in992.2 mb 0.00 in0.0 mm 0.00 in0.0 mm 0.23 in5.8 mm
04:34 AM 39.7°F4.3°C 38.2°F3.4°C 94% 14.0 mph SSE22.5 kmh SSE 19.0 mph30.6 kmh 29.28 in991.5 mb 0.00 in0.0 mm 0.00 in0.0 mm 0.24 in6.1 mm
04:39 AM 39.9°F4.4°C 38.6°F3.7°C 95% 12.0 mph S19.3 kmh S 19.0 mph30.6 kmh 29.28 in991.5 mb 0.00 in0.0 mm 0.00 in0.0 mm 0.24 in6.1 mm
04:44 AM 39.9°F4.4°C 38.6°F3.7°C 95% 10.0 mph SE16.1 kmh SE 15.0 mph24.1 kmh 29.27 in991.2 mb 0.00 in0.0 mm 0.00 in0.0 mm 0.24 in6.1 mm
04:49 AM 40.3°F4.6°C 39.0°F3.9°C 95% 11.0 mph S17.7 kmh S 15.0 mph24.1 kmh 29.26 in990.9 mb 0.01 in0.3 mm 0.10 in2.5 mm 0.24 in6.1 mm
04:54 AM 40.5°F4.7°C 39.1°F3.9°C 95% 15.0 mph SSW24.1 kmh SSW 22.0 mph35.4 kmh 29.25 in990.5 mb 0.00 in0.0 mm 0.00 in0.0 mm 0.24 in6.1 mm
04:59 AM 40.6°F4.8°C 39.3°F4.1°C 95% 13.0 mph SE20.9 kmh SE 17.0 mph27.4 kmh 29.24 in990.2 mb 0.00 in0.0 mm 0.00 in0.0 mm 0.24 in6.1 mm
05:04 AM 41.0°F5.0°C 39.7°F4.3°C 95% 11.0 mph SSE17.7 kmh SSE 15.0 mph24.1 kmh 29.23 in989.8 mb 0.00 in0.0 mm 0.00 in0.0 mm 0.25 in6.4 mm
05:09 AM 41.5°F5.3°C 40.2°F4.6°C 95% 13.0 mph SSW20.9 kmh SSW 19.0 mph30.6 kmh 29.21 in989.2 mb 0.00 in0.0 mm 0.00 in0.0 mm 0.25 in6.4 mm
05:14 AM 42.3°F5.7°C 41.2°F5.1°C 96% 14.0 mph S22.5 kmh S 21.0 mph33.8 kmh 29.21 in989.2 mb 0.00 in0.0 mm 0.00 in0.0 mm 0.26 in6.6 mm
05:19 AM 42.3°F5.7°C 40.9°F4.9°C 95% 12.0 mph SW19.3 kmh SW 18.0 mph29.0 kmh 29.21 in989.2 mb 0.00 in0.0 mm 0.00 in0.0 mm 0.27 in6.9 mm
05:24 AM 42.4°F5.8°C 41.4°F5.2°C 96% 14.0 mph S22.5 kmh S 20.0 mph32.2 kmh 29.19 in988.5 mb 0.00 in0.0 mm 0.00 in0.0 mm 0.29 in7.4 mm
05:29 AM 42.8°F6.0°C 41.5°F5.3°C 95% 10.0 mph SSE16.1 kmh SSE 31.0 mph49.9 kmh 29.18 in988.1 mb 0.00 in0.0 mm 0.00 in0.0 mm 0.29 in7.4 mm
05:34 AM 43.3°F6.3°C 42.3°F5.7°C 96% 11.0 mph S17.7 kmh S 18.0 mph29.0 kmh 29.18 in988.1 mb 0.00 in0.0 mm 0.00 in0.0 mm 0.29 in7.4 mm
05:39 AM 44.1°F6.7°C 43.0°F6.1°C 96% 16.0 mph SSW25.7 kmh SSW 26.0 mph41.8 kmh 29.17 in987.8 mb 0.00 in0.0 mm 0.00 in0.0 mm 0.29 in7.4 mm
05:44 AM 44.6°F7.0°C 43.5°F6.4°C 96% 16.0 mph SSW25.7 kmh SSW 24.0 mph38.6 kmh 29.17 in987.8 mb 0.00 in0.0 mm 0.00 in0.0 mm 0.29 in7.4 mm
05:49 AM 45.1°F7.3°C 43.8°F6.6°C 95% 20.0 mph SW32.2 kmh SW 35.0 mph56.3 kmh 29.15 in987.1 mb 0.00 in0.0 mm 0.00 in0.0 mm 0.29 in7.4 mm
05:54 AM 45.9°F7.7°C 44.8°F7.1°C 96% 22.0 mph SW35.4 kmh SW 35.0 mph56.3 kmh 29.16 in987.5 mb 0.00 in0.0 mm 0.00 in0.0 mm 0.29 in7.4 mm
05:59 AM 46.6°F8.1°C 45.2°F7.3°C 95% 20.0 mph SSW32.2 kmh SSW 37.0 mph59.5 kmh 29.15 in987.1 mb 0.00 in0.0 mm 0.00 in0.0 mm 0.29 in7.4 mm
06:04 AM 46.8°F8.2°C 45.4°F7.4°C 95% 18.0 mph WSW29.0 kmh WSW 30.0 mph48.3 kmh 29.15 in987.1 mb 0.00 in0.0 mm 0.00 in0.0 mm 0.29 in7.4 mm
06:09 AM 47.1°F8.4°C 45.5°F7.5°C 94% 14.0 mph S22.5 kmh S 21.0 mph33.8 kmh 29.14 in986.8 mb 0.00 in0.0 mm 0.00 in0.0 mm 0.29 in7.4 mm
06:14 AM 47.5°F8.6°C 45.8°F7.7°C 94% 21.0 mph S33.8 kmh S 37.0 mph59.5 kmh 29.14 in986.8 mb 0.00 in0.0 mm 0.00 in0.0 mm 0.29 in7.4 mm
06:19 AM 47.7°F8.7°C 46.0°F7.8°C 94% 22.0 mph SW35.4 kmh SW 39.0 mph62.8 kmh 29.14 in986.8 mb 0.00 in0.0 mm 0.00 in0.0 mm 0.29 in7.4 mm
06:24 AM 47.8°F8.8°C 45.9°F7.7°C 93% 16.0 mph SW25.7 kmh SW 26.0 mph41.8 kmh 29.14 in986.8 mb 0.00 in0.0 mm 0.00 in0.0 mm 0.29 in7.4 mm
06:29 AM 48.0°F8.9°C 46.1°F7.8°C 93% 15.0 mph WSW24.1 kmh WSW 29.0 mph46.7 kmh 29.14 in986.8 mb 0.00 in0.0 mm 0.00 in0.0 mm 0.29 in7.4 mm
06:34 AM 48.2°F9.0°C 46.3°F7.9°C 93% 16.0 mph WSW25.7 kmh WSW 26.0 mph41.8 kmh 29.14 in986.8 mb 0.00 in0.0 mm 0.00 in0.0 mm 0.29 in7.4 mm
06:39 AM 48.0°F8.9°C 46.1°F7.8°C 93% 23.0 mph SW37.0 kmh SW 33.0 mph53.1 kmh 29.13 in986.5 mb 0.00 in0.0 mm 0.00 in0.0 mm 0.29 in7.4 mm
06:44 AM 48.0°F8.9°C 46.1°F7.8°C 93% 22.0 mph SW35.4 kmh SW 38.0 mph61.2 kmh 29.14 in986.8 mb 0.00 in0.0 mm 0.00 in0.0 mm 0.29 in7.4 mm
06:49 AM 48.2°F9.0°C 46.0°F7.8°C 92% 15.0 mph SW24.1 kmh SW 25.0 mph40.2 kmh 29.13 in986.5 mb 0.00 in0.0 mm 0.00 in0.0 mm 0.29 in7.4 mm
06:54 AM 48.6°F9.2°C 46.3°F7.9°C 92% 22.0 mph SW35.4 kmh SW 34.0 mph54.7 kmh 29.12 in986.1 mb 0.00 in0.0 mm 0.00 in0.0 mm 0.29 in7.4 mm
06:59 AM 48.4°F9.1°C 46.2°F7.9°C 92% 19.0 mph SW30.6 kmh SW 29.0 mph46.7 kmh 29.12 in986.1 mb 0.00 in0.0 mm 0.00 in0.0 mm 0.29 in7.4 mm
07:04 AM 48.6°F9.2°C 46.1°F7.8°C 91% 25.0 mph SW40.2 kmh SW 41.0 mph66.0 kmh 29.12 in986.1 mb 0.00 in0.0 mm 0.00 in0.0 mm 0.29 in7.4 mm
07:09 AM 48.6°F9.2°C 46.1°F7.8°C 91% 19.0 mph SW30.6 kmh SW 33.0 mph53.1 kmh 29.11 in985.8 mb 0.00 in0.0 mm 0.00 in0.0 mm 0.29 in7.4 mm
07:14 AM 48.7°F9.3°C 45.9°F7.7°C 90% 22.0 mph SW35.4 kmh SW 31.0 mph49.9 kmh 29.11 in985.8 mb 0.00 in0.0 mm 0.00 in0.0 mm 0.29 in7.4 mm
07:19 AM 48.7°F9.3°C 45.9°F7.7°C 90% 18.0 mph SW29.0 kmh SW 28.0 mph45.1 kmh 29.11 in985.8 mb 0.00 in0.0 mm 0.00 in0.0 mm 0.29 in7.4 mm
07:24 AM 48.7°F9.3°C 45.9°F7.7°C 90% 16.0 mph WSW25.7 kmh WSW 25.0 mph40.2 kmh 29.11 in985.8 mb 0.00 in0.0 mm 0.00 in0.0 mm 0.29 in7.4 mm
07:29 AM 48.7°F9.3°C 45.9°F7.7°C 90% 19.0 mph SW30.6 kmh SW 27.0 mph43.5 kmh 29.11 in985.8 mb 0.00 in0.0 mm 0.00 in0.0 mm 0.29 in7.4 mm
07:34 AM 48.9°F9.4°C 45.8°F7.7°C 89% 15.0 mph SW24.1 kmh SW 27.0 mph43.5 kmh 29.11 in985.8 mb 0.00 in0.0 mm 0.00 in0.0 mm 0.29 in7.4 mm
07:39 AM 48.9°F9.4°C 45.5°F7.5°C 88% 20.0 mph SW32.2 kmh SW 32.0 mph51.5 kmh 29.11 in985.8 mb 0.00 in0.0 mm 0.00 in0.0 mm 0.29 in7.4 mm
07:44 AM 48.9°F9.4°C 45.2°F7.3°C 87% 18.0 mph SW29.0 kmh SW 30.0 mph48.3 kmh 29.11 in985.8 mb 0.00 in0.0 mm 0.00 in0.0 mm 0.29 in7.4 mm
07:49 AM 48.7°F9.3°C 45.0°F7.2°C 87% 18.0 mph WSW29.0 kmh WSW 27.0 mph43.5 kmh 29.10 in985.4 mb 0.00 in0.0 mm 0.00 in0.0 mm 0.29 in7.4 mm
07:54 AM 48.6°F9.2°C 44.9°F7.2°C 87% 17.0 mph SSW27.4 kmh SSW 24.0 mph38.6 kmh 29.10 in985.4 mb 0.00 in0.0 mm 0.00 in0.0 mm 0.29 in7.4 mm
07:59 AM 48.6°F9.2°C 44.9°F7.2°C 87% 14.0 mph SW22.5 kmh SW 20.0 mph32.2 kmh 29.10 in985.4 mb 0.00 in0.0 mm 0.00 in0.0 mm 0.29 in7.4 mm
08:04 AM 48.6°F9.2°C 44.6°F7.0°C 86% 17.0 mph SW27.4 kmh SW 49.0 mph78.9 kmh 29.10 in985.4 mb 0.00 in0.0 mm 0.00 in0.0 mm 0.29 in7.4 mm
08:09 AM 48.7°F9.3°C 44.1°F6.7°C 84% 20.0 mph SW32.2 kmh SW 30.0 mph48.3 kmh 29.10 in985.4 mb 0.00 in0.0 mm 0.00 in0.0 mm 0.29 in7.4 mm
08:14 AM 49.1°F9.5°C 43.2°F6.2°C 80% 20.0 mph SW32.2 kmh SW 36.0 mph57.9 kmh 29.11 in985.8 mb 0.00 in0.0 mm 0.00 in0.0 mm 0.29 in7.4 mm
08:19 AM 49.3°F9.6°C 42.7°F5.9°C 78% 24.0 mph WSW38.6 kmh WSW 35.0 mph56.3 kmh 29.10 in985.4 mb 0.00 in0.0 mm 0.00 in0.0 mm 0.29 in7.4 mm
08:24 AM 49.1°F9.5°C 42.5°F5.8°C 78% 14.0 mph SW22.5 kmh SW 25.0 mph40.2 kmh 29.10 in985.4 mb 0.00 in0.0 mm 0.00 in0.0 mm 0.29 in7.4 mm
08:29 AM 48.9°F9.4°C 41.7°F5.4°C 76% 26.0 mph WSW41.8 kmh WSW 53.0 mph85.3 kmh 29.11 in985.8 mb 0.00 in0.0 mm 0.00 in0.0 mm 0.29 in7.4 mm
08:34 AM 48.9°F9.4°C 41.0°F5.0°C 74% 22.0 mph W35.4 kmh W 33.0 mph53.1 kmh 29.12 in986.1 mb 0.00 in0.0 mm 0.00 in0.0 mm 0.29 in7.4 mm
08:39 AM 48.6°F9.2°C 40.7°F4.8°C 74% 26.0 mph WSW41.8 kmh WSW 46.0 mph74.0 kmh 29.11 in985.8 mb 0.00 in0.0 mm 0.00 in0.0 mm 0.29 in7.4 mm
08:44 AM 48.2°F9.0°C 40.0°F4.4°C 73% 32.0 mph WSW51.5 kmh WSW 53.0 mph85.3 kmh 29.12 in986.1 mb 0.00 in0.0 mm 0.00 in0.0 mm 0.29 in7.4 mm
08:49 AM 47.8°F8.8°C 39.3°F4.1°C 72% 37.0 mph W59.5 kmh W 52.0 mph83.7 kmh 29.12 in986.1 mb 0.00 in0.0 mm 0.00 in0.0 mm 0.29 in7.4 mm
08:54 AM 47.5°F8.6°C 39.3°F4.1°C 73% 30.0 mph WSW48.3 kmh WSW 47.0 mph75.6 kmh 29.12 in986.1 mb 0.00 in0.0 mm 0.00 in0.0 mm 0.29 in7.4 mm
08:59 AM 47.1°F8.4°C 39.3°F4.1°C 74% 26.0 mph W41.8 kmh W 35.0 mph56.3 kmh 29.13 in986.5 mb 0.00 in0.0 mm 0.00 in0.0 mm 0.29 in7.4 mm
09:04 AM 46.6°F8.1°C 39.1°F3.9°C 75% 32.0 mph WSW51.5 kmh WSW 48.0 mph77.2 kmh 29.14 in986.8 mb 0.00 in0.0 mm 0.00 in0.0 mm 0.29 in7.4 mm
09:09 AM 46.0°F7.8°C 38.6°F3.7°C 75% 32.0 mph W51.5 kmh W 41.0 mph66.0 kmh 29.14 in986.8 mb 0.00 in0.0 mm 0.00 in0.0 mm 0.29 in7.4 mm
09:14 AM 45.7°F7.6°C 38.6°F3.7°C 76% 34.0 mph WSW54.7 kmh WSW 44.0 mph70.8 kmh 29.14 in986.8 mb 0.00 in0.0 mm 0.00 in0.0 mm 0.29 in7.4 mm
09:19 AM 45.3°F7.4°C 38.5°F3.6°C 77% 34.0 mph W54.7 kmh W 52.0 mph83.7 kmh 29.15 in987.1 mb 0.00 in0.0 mm 0.00 in0.0 mm 0.29 in7.4 mm
09:24 AM 45.0°F7.2°C 38.2°F3.4°C 77% 30.0 mph W48.3 kmh W 39.0 mph62.8 kmh 29.16 in987.5 mb 0.00 in0.0 mm 0.00 in0.0 mm 0.29 in7.4 mm
09:29 AM 44.4°F6.9°C 38.0°F3.3°C 78% 35.0 mph W56.3 kmh W 48.0 mph77.2 kmh 29.18 in988.1 mb 0.00 in0.0 mm 0.00 in0.0 mm 0.29 in7.4 mm
09:34 AM 43.9°F6.6°C 37.5°F3.1°C 78% 37.0 mph W59.5 kmh W 50.0 mph80.5 kmh 29.19 in988.5 mb 0.00 in0.0 mm 0.00 in0.0 mm 0.29 in7.4 mm
09:39 AM 43.2°F6.2°C 36.8°F2.7°C 78% 29.0 mph WSW46.7 kmh WSW 43.0 mph69.2 kmh 29.19 in988.5 mb 0.00 in0.0 mm 0.00 in0.0 mm 0.29 in7.4 mm
09:44 AM 42.8°F6.0°C 36.8°F2.7°C 79% 35.0 mph W56.3 kmh W 56.0 mph90.1 kmh 29.21 in989.2 mb 0.00 in0.0 mm 0.00 in0.0 mm 0.29 in7.4 mm
09:49 AM 42.6°F5.9°C 36.9°F2.7°C 80% 33.0 mph W53.1 kmh W 48.0 mph77.2 kmh 29.21 in989.2 mb 0.00 in0.0 mm 0.00 in0.0 mm 0.29 in7.4 mm
09:54 AM 42.4°F5.8°C 37.0°F2.8°C 81% 36.0 mph W57.9 kmh W 53.0 mph85.3 kmh 29.22 in989.5 mb 0.00 in0.0 mm 0.00 in0.0 mm 0.29 in7.4 mm
09:59 AM 42.4°F5.8°C 37.7°F3.2°C 83% 35.0 mph W56.3 kmh W 53.0 mph85.3 kmh 29.23 in989.8 mb 0.00 in0.0 mm 0.00 in0.0 mm 0.29 in7.4 mm
10:06 AM 42.4°F5.8°C 37.7°F3.2°C 83% 31.0 mph W49.9 kmh W 42.0 mph67.6 kmh 29.24 in990.2 mb 0.00 in0.0 mm 0.00 in0.0 mm 0.29 in7.4 mm
10:10 AM 42.4°F5.8°C 37.7°F3.2°C 83% 28.0 mph W45.1 kmh W 37.0 mph59.5 kmh 29.25 in990.5 mb 0.00 in0.0 mm 0.00 in0.0 mm 0.29 in7.4 mm
10:15 AM 42.4°F5.8°C 38.0°F3.3°C 84% 33.0 mph W53.1 kmh W 49.0 mph78.9 kmh 29.26 in990.9 mb 0.00 in0.0 mm 0.00 in0.0 mm 0.29 in7.4 mm
10:21 AM 42.4°F5.8°C 38.0°F3.3°C 84% 28.0 mph WNW45.1 kmh WNW 43.0 mph69.2 kmh 29.28 in991.5 mb 0.00 in0.0 mm 0.00 in0.0 mm 0.29 in7.4 mm
10:29 AM 42.4°F5.8°C 37.7°F3.2°C 83% 28.0 mph WNW45.1 kmh WNW 42.0 mph67.6 kmh 29.29 in991.9 mb 0.00 in0.0 mm 0.00 in0.0 mm 0.29 in7.4 mm
10:35 AM 42.4°F5.8°C 37.7°F3.2°C 83% 22.0 mph W35.4 kmh W 42.0 mph67.6 kmh 29.32 in992.9 mb 0.00 in0.0 mm 0.00 in0.0 mm 0.29 in7.4 mm
10:39 AM 42.6°F5.9°C 37.5°F3.1°C 82% 25.0 mph NW40.2 kmh NW 35.0 mph56.3 kmh 29.32 in992.9 mb 0.00 in0.0 mm 0.00 in0.0 mm 0.29 in7.4 mm
10:44 AM 43.0°F6.1°C 38.2°F3.4°C 83% 25.0 mph WNW40.2 kmh WNW 33.0 mph53.1 kmh 29.33 in993.2 mb 0.00 in0.0 mm 0.00 in0.0 mm 0.29 in7.4 mm
10:49 AM 43.0°F6.1°C 38.2°F3.4°C 83% 28.0 mph WNW45.1 kmh WNW 41.0 mph66.0 kmh 29.34 in993.6 mb 0.00 in0.0 mm 0.00 in0.0 mm 0.29 in7.4 mm
10:54 AM 43.2°F6.2°C 38.4°F3.6°C 83% 19.0 mph W30.6 kmh W 31.0 mph49.9 kmh 29.35 in993.9 mb 0.00 in0.0 mm 0.00 in0.0 mm 0.29 in7.4 mm
10:59 AM 43.2°F6.2°C 38.0°F3.3°C 82% 25.0 mph WNW40.2 kmh WNW 45.0 mph72.4 kmh 29.35 in993.9 mb 0.00 in0.0 mm 0.00 in0.0 mm 0.29 in7.4 mm
11:04 AM 43.2°F6.2°C 38.0°F3.3°C 82% 27.0 mph NW43.5 kmh NW 37.0 mph59.5 kmh 29.36 in994.2 mb 0.00 in0.0 mm 0.00 in0.0 mm 0.29 in7.4 mm
11:09 AM 43.3°F6.3°C 38.2°F3.4°C 82% 21.0 mph W33.8 kmh W 31.0 mph49.9 kmh 29.38 in994.9 mb 0.00 in0.0 mm 0.00 in0.0 mm 0.29 in7.4 mm
11:14 AM 43.3°F6.3°C 37.9°F3.3°C 81% 28.0 mph WNW45.1 kmh WNW 40.0 mph64.4 kmh 29.38 in994.9 mb 0.00 in0.0 mm 0.00 in0.0 mm 0.29 in7.4 mm
11:19 AM 43.5°F6.4°C 37.8°F3.2°C 80% 23.0 mph NW37.0 kmh NW 40.0 mph64.4 kmh 29.39 in995.3 mb 0.00 in0.0 mm 0.00 in0.0 mm 0.29 in7.4 mm
11:24 AM 43.3°F6.3°C 37.6°F3.1°C 80% 20.0 mph WNW32.2 kmh WNW 28.0 mph45.1 kmh 29.40 in995.6 mb 0.00 in0.0 mm 0.00 in0.0 mm 0.29 in7.4 mm
11:29 AM 43.3°F6.3°C 37.9°F3.3°C 81% 18.0 mph W29.0 kmh W 24.0 mph38.6 kmh 29.41 in995.9 mb 0.00 in0.0 mm 0.00 in0.0 mm 0.29 in7.4 mm
11:34 AM 43.2°F6.2°C 38.0°F3.3°C 82% 22.0 mph WNW35.4 kmh WNW 32.0 mph51.5 kmh 29.41 in995.9 mb 0.00 in0.0 mm 0.00 in0.0 mm 0.29 in7.4 mm
11:39 AM 43.0°F6.1°C 38.2°F3.4°C 83% 24.0 mph WNW38.6 kmh WNW 41.0 mph66.0 kmh 29.42 in996.3 mb 0.00 in0.0 mm 0.00 in0.0 mm 0.29 in7.4 mm
11:44 AM 42.6°F5.9°C 38.1°F3.4°C 84% 23.0 mph WNW37.0 kmh WNW 31.0 mph49.9 kmh 29.43 in996.6 mb 0.00 in0.0 mm 0.00 in0.0 mm 0.29 in7.4 mm
11:49 AM 42.6°F5.9°C 38.1°F3.4°C 84% 17.0 mph NW27.4 kmh NW 25.0 mph40.2 kmh 29.43 in996.6 mb 0.00 in0.0 mm 0.00 in0.0 mm 0.29 in7.4 mm
11:54 AM 43.0°F6.1°C 38.5°F3.6°C 84% 19.0 mph W30.6 kmh W 29.0 mph46.7 kmh 29.44 in997.0 mb 0.00 in0.0 mm 0.00 in0.0 mm 0.29 in7.4 mm
11:59 AM 43.0°F6.1°C 37.9°F3.3°C 82% 23.0 mph W37.0 kmh W 34.0 mph54.7 kmh 29.44 in997.0 mb 0.00 in0.0 mm 0.00 in0.0 mm 0.29 in7.4 mm
12:04 PM 42.6°F5.9°C 37.8°F3.2°C 83% 21.0 mph NW33.8 kmh NW 31.0 mph49.9 kmh 29.45 in997.3 mb 0.00 in0.0 mm 0.00 in0.0 mm 0.29 in7.4 mm
12:09 PM 43.0°F6.1°C 38.2°F3.4°C 83% 26.0 mph W41.8 kmh W 38.0 mph61.2 kmh 29.46 in997.6 mb 0.00 in0.0 mm 0.00 in0.0 mm 0.29 in7.4 mm
12:14 PM 42.3°F5.7°C 38.1°F3.4°C 85% 15.0 mph W24.1 kmh W 23.0 mph37.0 kmh 29.46 in997.6 mb 0.00 in0.0 mm 0.00 in0.0 mm 0.29 in7.4 mm
12:19 PM 42.4°F5.8°C 38.9°F3.8°C 87% 22.0 mph NW35.4 kmh NW 35.0 mph56.3 kmh 29.46 in997.6 mb 0.00 in0.0 mm 0.00 in0.0 mm 0.29 in7.4 mm
12:24 PM 42.3°F5.7°C 38.4°F3.6°C 86% 25.0 mph W40.2 kmh W 35.0 mph56.3 kmh 29.46 in997.6 mb 0.01 in0.3 mm 0.10 in2.5 mm 0.30 in7.6 mm
12:29 PM 42.4°F5.8°C 38.6°F3.7°C 86% 20.0 mph W32.2 kmh W 29.0 mph46.7 kmh 29.47 in998.0 mb 0.00 in0.0 mm 0.00 in0.0 mm 0.30 in7.6 mm
12:34 PM 42.4°F5.8°C 38.6°F3.7°C 86% 17.0 mph W27.4 kmh W 27.0 mph43.5 kmh 29.47 in998.0 mb 0.00 in0.0 mm 0.00 in0.0 mm 0.30 in7.6 mm
12:39 PM 42.4°F5.8°C 38.9°F3.8°C 87% 14.0 mph W22.5 kmh W 20.0 mph32.2 kmh 29.47 in998.0 mb 0.00 in0.0 mm 0.00 in0.0 mm 0.30 in7.6 mm
12:44 PM 42.3°F5.7°C 38.7°F3.7°C 87% 19.0 mph W30.6 kmh W 29.0 mph46.7 kmh 29.48 in998.3 mb 0.00 in0.0 mm 0.00 in0.0 mm 0.30 in7.6 mm
12:49 PM 42.3°F5.7°C 38.7°F3.7°C 87% 19.0 mph W30.6 kmh W 26.0 mph41.8 kmh 29.48 in998.3 mb 0.00 in0.0 mm 0.00 in0.0 mm 0.30 in7.6 mm
12:54 PM 42.4°F5.8°C 38.6°F3.7°C 86% 18.0 mph W29.0 kmh W 28.0 mph45.1 kmh 29.49 in998.6 mb 0.00 in0.0 mm 0.00 in0.0 mm 0.30 in7.6 mm
12:59 PM 42.4°F5.8°C 38.3°F3.5°C 85% 20.0 mph W32.2 kmh W 25.0 mph40.2 kmh 29.49 in998.6 mb 0.00 in0.0 mm 0.00 in0.0 mm 0.30 in7.6 mm
01:04 PM 42.4°F5.8°C 38.0°F3.3°C 84% 18.0 mph W29.0 kmh W 26.0 mph41.8 kmh 29.49 in998.6 mb 0.00 in0.0 mm 0.00 in0.0 mm 0.30 in7.6 mm
01:09 PM 42.3°F5.7°C 37.8°F3.2°C 84% 19.0 mph W30.6 kmh W 31.0 mph49.9 kmh 29.49 in998.6 mb 0.00 in0.0 mm 0.00 in0.0 mm 0.30 in7.6 mm
01:14 PM 42.3°F5.7°C 37.8°F3.2°C 84% 18.0 mph W29.0 kmh W 28.0 mph45.1 kmh 29.50 in999.0 mb 0.00 in0.0 mm 0.00 in0.0 mm 0.30 in7.6 mm
01:19 PM 41.9°F5.5°C 37.1°F2.8°C 83% 23.0 mph W37.0 kmh W 31.0 mph49.9 kmh 29.50 in999.0 mb 0.00 in0.0 mm 0.00 in0.0 mm 0.30 in7.6 mm
01:24 PM 42.1°F5.6°C 37.0°F2.8°C 82% 19.0 mph W30.6 kmh W 28.0 mph45.1 kmh 29.51 in999.3 mb 0.00 in0.0 mm 0.00 in0.0 mm 0.30 in7.6 mm
01:29 PM 42.1°F5.6°C 37.0°F2.8°C 82% 18.0 mph W29.0 kmh W 31.0 mph49.9 kmh 29.51 in999.3 mb 0.00 in0.0 mm 0.00 in0.0 mm 0.30 in7.6 mm
01:34 PM 42.1°F5.6°C 37.0°F2.8°C 82% 19.0 mph W30.6 kmh W 29.0 mph46.7 kmh 29.51 in999.3 mb 0.00 in0.0 mm 0.00 in0.0 mm 0.30 in7.6 mm
01:39 PM 41.9°F5.5°C 36.8°F2.7°C 82% 12.0 mph WNW19.3 kmh WNW 17.0 mph27.4 kmh 29.52 in999.7 mb 0.00 in0.0 mm 0.00 in0.0 mm 0.30 in7.6 mm
01:44 PM 41.9°F5.5°C 36.8°F2.7°C 82% 18.0 mph W29.0 kmh W 28.0 mph45.1 kmh 29.52 in999.7 mb 0.00 in0.0 mm 0.00 in0.0 mm 0.30 in7.6 mm
01:49 PM 42.1°F5.6°C 37.3°F2.9°C 83% 16.0 mph W25.7 kmh W 24.0 mph38.6 kmh 29.52 in999.7 mb 0.00 in0.0 mm 0.00 in0.0 mm 0.30 in7.6 mm
01:54 PM 42.1°F5.6°C 37.3°F2.9°C 83% 15.0 mph W24.1 kmh W 19.0 mph30.6 kmh 29.52 in999.7 mb 0.00 in0.0 mm 0.00 in0.0 mm 0.30 in7.6 mm
01:59 PM 42.1°F5.6°C 37.0°F2.8°C 82% 17.0 mph NW27.4 kmh NW 23.0 mph37.0 kmh 29.52 in999.7 mb 0.00 in0.0 mm 0.00 in0.0 mm 0.30 in7.6 mm
02:04 PM 42.1°F5.6°C 37.0°F2.8°C 82% 16.0 mph NW25.7 kmh NW 24.0 mph38.6 kmh 29.52 in999.7 mb 0.00 in0.0 mm 0.00 in0.0 mm 0.30 in7.6 mm
02:09 PM 42.1°F5.6°C 37.3°F2.9°C 83% 16.0 mph W25.7 kmh W 23.0 mph37.0 kmh 29.53 in1000.0 mb 0.00 in0.0 mm 0.00 in0.0 mm 0.30 in7.6 mm
02:14 PM 42.1°F5.6°C 37.3°F2.9°C 83% 16.0 mph W25.7 kmh W 21.0 mph33.8 kmh 29.53 in1000.0 mb 0.00 in0.0 mm 0.00 in0.0 mm 0.30 in7.6 mm
02:19 PM 42.1°F5.6°C 37.0°F2.8°C 82% 13.0 mph WNW20.9 kmh WNW 19.0 mph30.6 kmh 29.53 in1000.0 mb 0.00 in0.0 mm 0.00 in0.0 mm 0.30 in7.6 mm
02:24 PM 42.3°F5.7°C 37.2°F2.9°C 82% 14.0 mph W22.5 kmh W 19.0 mph30.6 kmh 29.53 in1000.0 mb 0.00 in0.0 mm 0.00 in0.0 mm 0.30 in7.6 mm
02:29 PM 42.4°F5.8°C 37.3°F2.9°C 82% 14.0 mph WNW22.5 kmh WNW 25.0 mph40.2 kmh 29.53 in1000.0 mb 0.00 in0.0 mm 0.00 in0.0 mm 0.30 in7.6 mm
02:34 PM 42.4°F5.8°C 37.0°F2.8°C 81% 12.0 mph W19.3 kmh W 18.0 mph29.0 kmh 29.54 in1000.3 mb 0.00 in0.0 mm 0.00 in0.0 mm 0.30 in7.6 mm
02:39 PM 42.6°F5.9°C 37.2°F2.9°C 81% 13.0 mph W20.9 kmh W 17.0 mph27.4 kmh 29.54 in1000.3 mb 0.00 in0.0 mm 0.00 in0.0 mm 0.30 in7.6 mm
02:44 PM 42.6°F5.9°C 37.2°F2.9°C 81% 12.0 mph W19.3 kmh W 19.0 mph30.6 kmh 29.54 in1000.3 mb 0.00 in0.0 mm 0.00 in0.0 mm 0.30 in7.6 mm
02:49 PM 43.0°F6.1°C 37.6°F3.1°C 81% 17.0 mph W27.4 kmh W 26.0 mph41.8 kmh 29.54 in1000.3 mb 0.00 in0.0 mm 0.00 in0.0 mm 0.30 in7.6 mm
02:54 PM 43.0°F6.1°C 36.9°F2.7°C 79% 13.0 mph WNW20.9 kmh WNW 19.0 mph30.6 kmh 29.54 in1000.3 mb 0.00 in0.0 mm 0.00 in0.0 mm 0.30 in7.6 mm
02:59 PM 43.0°F6.1°C 36.9°F2.7°C 79% 13.0 mph W20.9 kmh W 17.0 mph27.4 kmh 29.54 in1000.3 mb 0.00 in0.0 mm 0.00 in0.0 mm 0.30 in7.6 mm
03:04 PM 42.8°F6.0°C 37.1°F2.8°C 80% 16.0 mph W25.7 kmh W 24.0 mph38.6 kmh 29.54 in1000.3 mb 0.00 in0.0 mm 0.00 in0.0 mm 0.30 in7.6 mm
03:09 PM 42.6°F5.9°C 36.6°F2.6°C 79% 14.0 mph W22.5 kmh W 21.0 mph33.8 kmh 29.54 in1000.3 mb 0.00 in0.0 mm 0.00 in0.0 mm 0.30 in7.6 mm
03:14 PM 42.4°F5.8°C 36.4°F2.4°C 79% 9.0 mph W14.5 kmh W 14.0 mph22.5 kmh 29.54 in1000.3 mb 0.00 in0.0 mm 0.00 in0.0 mm 0.30 in7.6 mm
03:19 PM 42.4°F5.8°C 36.7°F2.6°C 80% 14.0 mph W22.5 kmh W 20.0 mph32.2 kmh 29.54 in1000.3 mb 0.00 in0.0 mm 0.00 in0.0 mm 0.30 in7.6 mm
03:24 PM 42.4°F5.8°C 36.7°F2.6°C 80% 14.0 mph W22.5 kmh W 20.0 mph32.2 kmh 29.55 in1000.7 mb 0.00 in0.0 mm 0.00 in0.0 mm 0.30 in7.6 mm
03:29 PM 42.4°F5.8°C 36.7°F2.6°C 80% 12.0 mph W19.3 kmh W 19.0 mph30.6 kmh 29.55 in1000.7 mb 0.00 in0.0 mm 0.00 in0.0 mm 0.30 in7.6 mm
03:34 PM 42.4°F5.8°C 36.4°F2.4°C 79% 15.0 mph W24.1 kmh W 20.0 mph32.2 kmh 29.55 in1000.7 mb 0.00 in0.0 mm 0.00 in0.0 mm 0.30 in7.6 mm
03:39 PM 42.4°F5.8°C 36.4°F2.4°C 79% 12.0 mph W19.3 kmh W 18.0 mph29.0 kmh 29.55 in1000.7 mb 0.00 in0.0 mm 0.00 in0.0 mm 0.30 in7.6 mm
03:44 PM 42.3°F5.7°C 36.2°F2.3°C 79% 11.0 mph WNW17.7 kmh WNW 15.0 mph24.1 kmh 29.55 in1000.7 mb 0.00 in0.0 mm 0.00 in0.0 mm 0.30 in7.6 mm
03:49 PM 42.3°F5.7°C 35.9°F2.2°C 78% 14.0 mph W22.5 kmh W 20.0 mph32.2 kmh 29.55 in1000.7 mb 0.00 in0.0 mm 0.00 in0.0 mm 0.30 in7.6 mm
03:54 PM 42.3°F5.7°C 36.2°F2.3°C 79% 13.0 mph W20.9 kmh W 18.0 mph29.0 kmh 29.55 in1000.7 mb 0.00 in0.0 mm 0.00 in0.0 mm 0.30 in7.6 mm
03:59 PM 42.3°F5.7°C 36.5°F2.5°C 80% 8.0 mph W12.9 kmh W 13.0 mph20.9 kmh 29.56 in1001.0 mb 0.00 in0.0 mm 0.00 in0.0 mm 0.30 in7.6 mm
04:04 PM 42.3°F5.7°C 36.5°F2.5°C 80% 10.0 mph W16.1 kmh W 14.0 mph22.5 kmh 29.56 in1001.0 mb 0.00 in0.0 mm 0.00 in0.0 mm 0.30 in7.6 mm
04:09 PM 42.3°F5.7°C 36.5°F2.5°C 80% 12.0 mph W19.3 kmh W 17.0 mph27.4 kmh 29.56 in1001.0 mb 0.00 in0.0 mm 0.00 in0.0 mm 0.30 in7.6 mm
04:14 PM 42.3°F5.7°C 36.5°F2.5°C 80% 12.0 mph W19.3 kmh W 17.0 mph27.4 kmh 29.56 in1001.0 mb 0.00 in0.0 mm 0.00 in0.0 mm 0.30 in7.6 mm
04:19 PM 42.4°F5.8°C 36.7°F2.6°C 80% 10.0 mph W16.1 kmh W 16.0 mph25.7 kmh 29.56 in1001.0 mb 0.00 in0.0 mm 0.00 in0.0 mm 0.30 in7.6 mm
04:24 PM 42.4°F5.8°C 36.7°F2.6°C 80% 15.0 mph W24.1 kmh W 21.0 mph33.8 kmh 29.56 in1001.0 mb 0.00 in0.0 mm 0.00 in0.0 mm 0.30 in7.6 mm
04:29 PM 42.4°F5.8°C 36.7°F2.6°C 80% 12.0 mph W19.3 kmh W 18.0 mph29.0 kmh 29.56 in1001.0 mb 0.00 in0.0 mm 0.00 in0.0 mm 0.30 in7.6 mm
04:34 PM 42.4°F5.8°C 36.7°F2.6°C 80% 12.0 mph W19.3 kmh W 17.0 mph27.4 kmh 29.56 in1001.0 mb 0.00 in0.0 mm 0.00 in0.0 mm 0.30 in7.6 mm
04:39 PM 42.3°F5.7°C 36.5°F2.5°C 80% 11.0 mph W17.7 kmh W 20.0 mph32.2 kmh 29.56 in1001.0 mb 0.00 in0.0 mm 0.00 in0.0 mm 0.30 in7.6 mm
04:44 PM 42.4°F5.8°C 36.7°F2.6°C 80% 13.0 mph W20.9 kmh W 16.0 mph25.7 kmh 29.57 in1001.4 mb 0.00 in0.0 mm 0.00 in0.0 mm 0.30 in7.6 mm
04:49 PM 42.4°F5.8°C 36.7°F2.6°C 80% 13.0 mph W20.9 kmh W 21.0 mph33.8 kmh 29.57 in1001.4 mb 0.00 in0.0 mm 0.00 in0.0 mm 0.30 in7.6 mm
04:54 PM 42.4°F5.8°C 36.7°F2.6°C 80% 11.0 mph W17.7 kmh W 14.0 mph22.5 kmh 29.57 in1001.4 mb 0.00 in0.0 mm 0.00 in0.0 mm 0.30 in7.6 mm
04:59 PM 42.4°F5.8°C 36.7°F2.6°C 80% 10.0 mph W16.1 kmh W 14.0 mph22.5 kmh 29.57 in1001.4 mb 0.00 in0.0 mm 0.00 in0.0 mm 0.30 in7.6 mm
05:04 PM 42.4°F5.8°C 37.0°F2.8°C 81% 9.0 mph W14.5 kmh W 12.0 mph19.3 kmh 29.57 in1001.4 mb 0.00 in0.0 mm 0.00 in0.0 mm 0.30 in7.6 mm
05:09 PM 42.4°F5.8°C 37.0°F2.8°C 81% 9.0 mph W14.5 kmh W 13.0 mph20.9 kmh 29.57 in1001.4 mb 0.00 in0.0 mm 0.00 in0.0 mm 0.30 in7.6 mm
05:14 PM 42.4°F5.8°C 36.7°F2.6°C 80% 10.0 mph W16.1 kmh W 15.0 mph24.1 kmh 29.57 in1001.4 mb 0.00 in0.0 mm 0.00 in0.0 mm 0.30 in7.6 mm
05:19 PM 42.4°F5.8°C 36.7°F2.6°C 80% 7.0 mph W11.3 kmh W 11.0 mph17.7 kmh 29.57 in1001.4 mb 0.00 in0.0 mm 0.00 in0.0 mm 0.30 in7.6 mm
05:24 PM 42.6°F5.9°C 36.9°F2.7°C 80% 10.0 mph WSW16.1 kmh WSW 15.0 mph24.1 kmh 29.57 in1001.4 mb 0.00 in0.0 mm 0.00 in0.0 mm 0.30 in7.6 mm
05:29 PM 42.6°F5.9°C 37.2°F2.9°C 81% 7.0 mph W11.3 kmh W 10.0 mph16.1 kmh 29.57 in1001.4 mb 0.00 in0.0 mm 0.00 in0.0 mm 0.30 in7.6 mm
05:34 PM 42.6°F5.9°C 37.2°F2.9°C 81% 9.0 mph W14.5 kmh W 10.0 mph16.1 kmh 29.57 in1001.4 mb 0.00 in0.0 mm 0.00 in0.0 mm 0.30 in7.6 mm
05:39 PM 42.6°F5.9°C 37.2°F2.9°C 81% 10.0 mph W16.1 kmh W 14.0 mph22.5 kmh 29.57 in1001.4 mb 0.00 in0.0 mm 0.00 in0.0 mm 0.30 in7.6 mm
05:44 PM 42.6°F5.9°C 37.2°F2.9°C 81% 6.0 mph W9.7 kmh W 10.0 mph16.1 kmh 29.57 in1001.4 mb 0.00 in0.0 mm 0.00 in0.0 mm 0.30 in7.6 mm
05:49 PM 42.6°F5.9°C 37.2°F2.9°C 81% 7.0 mph W11.3 kmh W 12.0 mph19.3 kmh 29.57 in1001.4 mb 0.00 in0.0 mm 0.00 in0.0 mm 0.30 in7.6 mm
05:54 PM 42.6°F5.9°C 37.5°F3.1°C 82% 5.0 mph W8.0 kmh W 8.0 mph12.9 kmh 29.57 in1001.4 mb 0.00 in0.0 mm 0.00 in0.0 mm 0.30 in7.6 mm
05:59 PM 42.6°F5.9°C 37.5°F3.1°C 82% 6.0 mph W9.7 kmh W 10.0 mph16.1 kmh 29.57 in1001.4 mb 0.00 in0.0 mm 0.00 in0.0 mm 0.30 in7.6 mm
06:03 PM 42.6°F5.9°C 37.5°F3.1°C 82% 6.0 mph W9.7 kmh W 10.0 mph16.1 kmh 29.56 in1001.0 mb 0.00 in0.0 mm 0.00 in0.0 mm 0.30 in7.6 mm
06:09 PM 42.6°F5.9°C 37.8°F3.2°C 83% 7.0 mph W11.3 kmh W 10.0 mph16.1 kmh 29.56 in1001.0 mb 0.00 in0.0 mm 0.00 in0.0 mm 0.30 in7.6 mm
06:14 PM 42.6°F5.9°C 37.8°F3.2°C 83% 8.0 mph W12.9 kmh W 11.0 mph17.7 kmh 29.57 in1001.4 mb 0.00 in0.0 mm 0.00 in0.0 mm 0.30 in7.6 mm
06:19 PM 42.6°F5.9°C 37.8°F3.2°C 83% 5.0 mph W8.0 kmh W 9.0 mph14.5 kmh 29.57 in1001.4 mb 0.00 in0.0 mm 0.00 in0.0 mm 0.30 in7.6 mm
06:24 PM 42.6°F5.9°C 37.8°F3.2°C 83% 3.0 mph W4.8 kmh W 4.0 mph6.4 kmh 29.57 in1001.4 mb 0.00 in0.0 mm 0.00 in0.0 mm 0.30 in7.6 mm
06:29 PM 42.6°F5.9°C 37.8°F3.2°C 83% 3.0 mph WSW4.8 kmh WSW 4.0 mph6.4 kmh 29.57 in1001.4 mb 0.00 in0.0 mm 0.00 in0.0 mm 0.30 in7.6 mm
06:34 PM 42.6°F5.9°C 37.8°F3.2°C 83% 4.0 mph WSW6.4 kmh WSW 7.0 mph11.3 kmh 29.56 in1001.0 mb 0.00 in0.0 mm 0.00 in0.0 mm 0.30 in7.6 mm
06:39 PM 42.8°F6.0°C 38.0°F3.3°C 83% 6.0 mph W9.7 kmh W 8.0 mph12.9 kmh 29.57 in1001.4 mb 0.00 in0.0 mm 0.00 in0.0 mm 0.30 in7.6 mm
06:44 PM 42.8°F6.0°C 38.3°F3.5°C 84% 4.0 mph W6.4 kmh W 6.0 mph9.7 kmh 29.56 in1001.0 mb 0.00 in0.0 mm 0.00 in0.0 mm 0.30 in7.6 mm
06:49 PM 42.8°F6.0°C 38.3°F3.5°C 84% 4.0 mph WSW6.4 kmh WSW 7.0 mph11.3 kmh 29.56 in1001.0 mb 0.00 in0.0 mm 0.00 in0.0 mm 0.30 in7.6 mm
06:54 PM 42.8°F6.0°C 38.3°F3.5°C 84% 5.0 mph WSW8.0 kmh WSW 8.0 mph12.9 kmh 29.56 in1001.0 mb 0.00 in0.0 mm 0.00 in0.0 mm 0.30 in7.6 mm
06:59 PM 43.0°F6.1°C 38.5°F3.6°C 84% 4.0 mph WSW6.4 kmh WSW 7.0 mph11.3 kmh 29.56 in1001.0 mb 0.00 in0.0 mm 0.00 in0.0 mm 0.30 in7.6 mm
07:04 PM 43.0°F6.1°C 38.5°F3.6°C 84% 4.0 mph W6.4 kmh W 7.0 mph11.3 kmh 29.56 in1001.0 mb 0.00 in0.0 mm 0.00 in0.0 mm 0.30 in7.6 mm
07:09 PM 43.0°F6.1°C 38.5°F3.6°C 84% 3.0 mph W4.8 kmh W 4.0 mph6.4 kmh 29.56 in1001.0 mb 0.00 in0.0 mm 0.00 in0.0 mm 0.30 in7.6 mm
07:14 PM 43.0°F6.1°C 38.5°F3.6°C 84% 10.0 mph W16.1 kmh W 16.0 mph25.7 kmh 29.56 in1001.0 mb 0.00 in0.0 mm 0.00 in0.0 mm 0.30 in7.6 mm
07:19 PM 42.3°F5.7°C 37.5°F3.1°C 83% 14.0 mph WSW22.5 kmh WSW 19.0 mph30.6 kmh 29.57 in1001.4 mb 0.00 in0.0 mm 0.00 in0.0 mm 0.30 in7.6 mm
07:24 PM 41.4°F5.2°C 36.9°F2.7°C 84% 4.0 mph S6.4 kmh S 7.0 mph11.3 kmh 29.57 in1001.4 mb 0.00 in0.0 mm 0.00 in0.0 mm 0.31 in7.9 mm
07:29 PM 41.0°F5.0°C 37.1°F2.8°C 86% 4.0 mph SW6.4 kmh SW 5.0 mph8.0 kmh 29.56 in1001.0 mb 0.00 in0.0 mm 0.00 in0.0 mm 0.31 in7.9 mm
07:34 PM 40.8°F4.9°C 37.0°F2.8°C 86% 4.0 mph SW6.4 kmh SW 5.0 mph8.0 kmh 29.57 in1001.4 mb 0.00 in0.0 mm 0.00 in0.0 mm 0.31 in7.9 mm
07:39 PM 40.8°F4.9°C 37.3°F2.9°C 87% 3.0 mph SW4.8 kmh SW 4.0 mph6.4 kmh 29.57 in1001.4 mb 0.00 in0.0 mm 0.00 in0.0 mm 0.31 in7.9 mm
07:44 PM 40.6°F4.8°C 37.1°F2.8°C 87% 1.0 mph SW1.6 kmh SW 2.0 mph3.2 kmh 29.56 in1001.0 mb 0.00 in0.0 mm 0.00 in0.0 mm 0.31 in7.9 mm
07:49 PM 40.6°F4.8°C 37.1°F2.8°C 87% 3.0 mph SW4.8 kmh SW 4.0 mph6.4 kmh 29.56 in1001.0 mb 0.00 in0.0 mm 0.00 in0.0 mm 0.31 in7.9 mm
07:54 PM 40.6°F4.8°C 37.1°F2.8°C 87% 3.0 mph SW4.8 kmh SW 4.0 mph6.4 kmh 29.56 in1001.0 mb 0.00 in0.0 mm 0.00 in0.0 mm 0.31 in7.9 mm
07:59 PM 40.6°F4.8°C 37.1°F2.8°C 87% 2.0 mph SSW3.2 kmh SSW 4.0 mph6.4 kmh 29.56 in1001.0 mb 0.00 in0.0 mm 0.00 in0.0 mm 0.31 in7.9 mm
08:04 PM 40.6°F4.8°C 37.1°F2.8°C 87% 4.0 mph SW6.4 kmh SW 8.0 mph12.9 kmh 29.57 in1001.4 mb 0.00 in0.0 mm 0.00 in0.0 mm 0.31 in7.9 mm
08:09 PM 41.0°F5.0°C 37.1°F2.8°C 86% 4.0 mph WSW6.4 kmh WSW 6.0 mph9.7 kmh 29.56 in1001.0 mb 0.00 in0.0 mm 0.00 in0.0 mm 0.31 in7.9 mm
08:14 PM 41.2°F5.1°C 37.3°F2.9°C 86% 2.0 mph WSW3.2 kmh WSW 3.0 mph4.8 kmh 29.57 in1001.4 mb 0.00 in0.0 mm 0.00 in0.0 mm 0.31 in7.9 mm
08:19 PM 41.0°F5.0°C 37.1°F2.8°C 86% 3.0 mph SW4.8 kmh SW 4.0 mph6.4 kmh 29.57 in1001.4 mb 0.00 in0.0 mm 0.00 in0.0 mm 0.31 in7.9 mm
08:24 PM 40.8°F4.9°C 37.3°F2.9°C 87% 1.0 mph S1.6 kmh S 2.0 mph3.2 kmh 29.56 in1001.0 mb 0.00 in0.0 mm 0.00 in0.0 mm 0.31 in7.9 mm
08:29 PM 41.0°F5.0°C 37.4°F3.0°C 87% 5.0 mph WSW8.0 kmh WSW 9.0 mph14.5 kmh 29.56 in1001.0 mb 0.00 in0.0 mm 0.00 in0.0 mm 0.31 in7.9 mm
08:34 PM 41.4°F5.2°C 37.8°F3.2°C 87% 3.0 mph W4.8 kmh W 3.0 mph4.8 kmh 29.56 in1001.0 mb 0.00 in0.0 mm 0.00 in0.0 mm 0.31 in7.9 mm
08:39 PM 41.7°F5.4°C 38.1°F3.4°C 87% 4.0 mph W6.4 kmh W 6.0 mph9.7 kmh 29.56 in1001.0 mb 0.00 in0.0 mm 0.00 in0.0 mm 0.31 in7.9 mm
08:44 PM 42.1°F5.6°C 38.5°F3.6°C 87% 3.0 mph W4.8 kmh W 4.0 mph6.4 kmh 29.57 in1001.4 mb 0.00 in0.0 mm 0.00 in0.0 mm 0.31 in7.9 mm
08:49 PM 42.3°F5.7°C 38.7°F3.7°C 87% 3.0 mph W4.8 kmh W 7.0 mph11.3 kmh 29.57 in1001.4 mb 0.00 in0.0 mm 0.00 in0.0 mm 0.31 in7.9 mm
08:54 PM 42.3°F5.7°C 38.7°F3.7°C 87% 7.0 mph WNW11.3 kmh WNW 9.0 mph14.5 kmh 29.57 in1001.4 mb 0.00 in0.0 mm 0.00 in0.0 mm 0.31 in7.9 mm
08:59 PM 41.9°F5.5°C 38.0°F3.3°C 86% 4.0 mph WNW6.4 kmh WNW 7.0 mph11.3 kmh 29.57 in1001.4 mb 0.00 in0.0 mm 0.00 in0.0 mm 0.31 in7.9 mm
09:04 PM 41.2°F5.1°C 37.6°F3.1°C 87% 3.0 mph WNW4.8 kmh WNW 5.0 mph8.0 kmh 29.57 in1001.4 mb 0.00 in0.0 mm 0.00 in0.0 mm 0.31 in7.9 mm
09:09 PM 41.0°F5.0°C 37.4°F3.0°C 87% 1.0 mph WNW1.6 kmh WNW 3.0 mph4.8 kmh 29.57 in1001.4 mb 0.00 in0.0 mm 0.00 in0.0 mm 0.31 in7.9 mm
09:14 PM 41.0°F5.0°C 37.4°F3.0°C 87% Calm Calm 1.0 mph1.6 kmh 29.57 in1001.4 mb 0.00 in0.0 mm 0.00 in0.0 mm 0.31 in7.9 mm
09:19 PM 40.8°F4.9°C 37.3°F2.9°C 87% 1.0 mph WNW1.6 kmh WNW 2.0 mph3.2 kmh 29.57 in1001.4 mb 0.00 in0.0 mm 0.00 in0.0 mm 0.31 in7.9 mm
09:24 PM 40.8°F4.9°C 37.3°F2.9°C 87% 2.0 mph S3.2 kmh S 3.0 mph4.8 kmh 29.57 in1001.4 mb 0.00 in0.0 mm 0.00 in0.0 mm 0.31 in7.9 mm
09:29 PM 40.8°F4.9°C 37.3°F2.9°C 87% 1.0 mph S1.6 kmh S 2.0 mph3.2 kmh 29.57 in1001.4 mb 0.00 in0.0 mm 0.00 in0.0 mm 0.31 in7.9 mm
09:34 PM 41.4°F5.2°C 38.1°F3.4°C 88% 4.0 mph WSW6.4 kmh WSW 9.0 mph14.5 kmh 29.57 in1001.4 mb 0.00 in0.0 mm 0.00 in0.0 mm 0.31 in7.9 mm
09:39 PM 41.7°F5.4°C 38.4°F3.6°C 88% 5.0 mph NW8.0 kmh NW 8.0 mph12.9 kmh 29.57 in1001.4 mb 0.00 in0.0 mm 0.00 in0.0 mm 0.31 in7.9 mm
09:44 PM 41.4°F5.2°C 37.8°F3.2°C 87% 1.0 mph NW1.6 kmh NW 2.0 mph3.2 kmh 29.57 in1001.4 mb 0.00 in0.0 mm 0.00 in0.0 mm 0.31 in7.9 mm
09:49 PM 41.0°F5.0°C 37.4°F3.0°C 87% Calm Calm -- 29.57 in1001.4 mb 0.00 in0.0 mm 0.00 in0.0 mm 0.31 in7.9 mm
09:54 PM 40.6°F4.8°C 37.4°F3.0°C 88% Calm Calm -- 29.57 in1001.4 mb 0.00 in0.0 mm 0.00 in0.0 mm 0.31 in7.9 mm
09:59 PM 40.5°F4.7°C 37.5°F3.1°C 89% 1.0 mph NW1.6 kmh NW 1.0 mph1.6 kmh 29.57 in1001.4 mb 0.00 in0.0 mm 0.00 in0.0 mm 0.31 in7.9 mm
10:04 PM 40.5°F4.7°C 37.5°F3.1°C 89% Calm Calm -- 29.57 in1001.4 mb 0.00 in0.0 mm 0.00 in0.0 mm 0.31 in7.9 mm
10:09 PM 40.5°F4.7°C 37.5°F3.1°C 89% 1.0 mph NW1.6 kmh NW 2.0 mph3.2 kmh 29.57 in1001.4 mb 0.00 in0.0 mm 0.00 in0.0 mm 0.31 in7.9 mm
10:14 PM 40.6°F4.8°C 37.7°F3.2°C 89% 7.0 mph SW11.3 kmh SW 12.0 mph19.3 kmh 29.58 in1001.7 mb 0.00 in0.0 mm 0.00 in0.0 mm 0.32 in8.1 mm
10:19 PM 40.3°F4.6°C 37.0°F2.8°C 88% 5.0 mph SSW8.0 kmh SSW 8.0 mph12.9 kmh 29.57 in1001.4 mb 0.00 in0.0 mm 0.00 in0.0 mm 0.33 in8.4 mm
10:24 PM 39.7°F4.3°C 36.8°F2.7°C 89% 6.0 mph W9.7 kmh W 9.0 mph14.5 kmh 29.58 in1001.7 mb 0.01 in0.3 mm 0.10 in2.5 mm 0.35 in8.9 mm
10:29 PM 39.6°F4.2°C 36.9°F2.7°C 90% 11.0 mph NW17.7 kmh NW 17.0 mph27.4 kmh 29.58 in1001.7 mb 0.00 in0.0 mm 0.00 in0.0 mm 0.35 in8.9 mm
10:34 PM 39.0°F3.9°C 36.3°F2.4°C 90% 9.0 mph NNW14.5 kmh NNW 14.0 mph22.5 kmh 29.59 in1002.0 mb 0.00 in0.0 mm 0.00 in0.0 mm 0.36 in9.1 mm
10:39 PM 39.0°F3.9°C 36.9°F2.7°C 92% 6.0 mph NW9.7 kmh NW 15.0 mph24.1 kmh 29.59 in1002.0 mb 0.01 in0.3 mm 0.10 in2.5 mm 0.38 in9.7 mm
10:44 PM 39.0°F3.9°C 36.9°F2.7°C 92% 6.0 mph NNW9.7 kmh NNW 10.0 mph16.1 kmh 29.58 in1001.7 mb 0.00 in0.0 mm 0.00 in0.0 mm 0.39 in9.9 mm
10:49 PM 39.0°F3.9°C 36.9°F2.7°C 92% 6.0 mph N9.7 kmh N 10.0 mph16.1 kmh 29.58 in1001.7 mb 0.00 in0.0 mm 0.00 in0.0 mm 0.39 in9.9 mm
10:54 PM 39.4°F4.1°C 37.5°F3.1°C 93% 6.0 mph N9.7 kmh N 9.0 mph14.5 kmh 29.59 in1002.0 mb 0.00 in0.0 mm 0.00 in0.0 mm 0.39 in9.9 mm
10:59 PM 39.4°F4.1°C 37.3°F2.9°C 92% 3.0 mph NNW4.8 kmh NNW 6.0 mph9.7 kmh 29.59 in1002.0 mb 0.00 in0.0 mm 0.00 in0.0 mm 0.39 in9.9 mm
11:04 PM 39.6°F4.2°C 37.4°F3.0°C 92% 3.0 mph NW4.8 kmh NW 5.0 mph8.0 kmh 29.59 in1002.0 mb 0.00 in0.0 mm 0.00 in0.0 mm 0.39 in9.9 mm
11:09 PM 39.6°F4.2°C 37.4°F3.0°C 92% 3.0 mph WNW4.8 kmh WNW 5.0 mph8.0 kmh 29.59 in1002.0 mb 0.00 in0.0 mm 0.00 in0.0 mm 0.39 in9.9 mm
11:14 PM 39.7°F4.3°C 37.6°F3.1°C 92% 4.0 mph NW6.4 kmh NW 8.0 mph12.9 kmh 29.59 in1002.0 mb 0.00 in0.0 mm 0.00 in0.0 mm 0.39 in9.9 mm
11:19 PM 39.7°F4.3°C 37.6°F3.1°C 92% 4.0 mph NW6.4 kmh NW 5.0 mph8.0 kmh 29.59 in1002.0 mb 0.00 in0.0 mm 0.00 in0.0 mm 0.39 in9.9 mm
11:24 PM 39.9°F4.4°C 37.8°F3.2°C 92% 3.0 mph WNW4.8 kmh WNW 5.0 mph8.0 kmh 29.59 in1002.0 mb 0.00 in0.0 mm 0.00 in0.0 mm 0.39 in9.9 mm
11:29 PM 40.1°F4.5°C 38.0°F3.3°C 92% 5.0 mph WSW8.0 kmh WSW 10.0 mph16.1 kmh 29.59 in1002.0 mb 0.00 in0.0 mm 0.00 in0.0 mm 0.40 in10.2 mm
11:34 PM 40.3°F4.6°C 38.1°F3.4°C 92% 3.0 mph W4.8 kmh W 6.0 mph9.7 kmh 29.59 in1002.0 mb 0.00 in0.0 mm 0.00 in0.0 mm 0.40 in10.2 mm
11:39 PM 40.5°F4.7°C 38.3°F3.5°C 92% 4.0 mph W6.4 kmh W 6.0 mph9.7 kmh 29.59 in1002.0 mb 0.00 in0.0 mm 0.00 in0.0 mm 0.40 in10.2 mm
11:44 PM 40.5°F4.7°C 38.3°F3.5°C 92% 4.0 mph WNW6.4 kmh WNW 7.0 mph11.3 kmh 29.59 in1002.0 mb 0.00 in0.0 mm 0.00 in0.0 mm 0.40 in10.2 mm
11:49 PM 40.6°F4.8°C 38.5°F3.6°C 92% 8.0 mph WNW12.9 kmh WNW 11.0 mph17.7 kmh 29.59 in1002.0 mb 0.00 in0.0 mm 0.00 in0.0 mm 0.40 in10.2 mm
11:54 PM 40.8°F4.9°C 38.1°F3.4°C 90% 9.0 mph W14.5 kmh W 14.0 mph22.5 kmh 29.59 in1002.0 mb 0.00 in0.0 mm 0.00 in0.0 mm 0.40 in10.2 mm
11:59 PM 41.0°F5.0°C 38.0°F3.3°C 89% 7.0 mph WNW11.3 kmh WNW 14.0 mph22.5 kmh 29.59 in1002.0 mb 0.00 in0.0 mm 0.00 in0.0 mm 0.40 in10.2 mm